sensor_id;sensor_type;location;lat;lon;timestamp;pressure;altitude;pressure_sealevel;temperature;humidity
3812;BME280;1921;49.368;11.068;2022-12-07T00:01:38;97625.53;;;3.84;100.00
3812;BME280;1921;49.368;11.068;2022-12-07T00:04:07;97616.03;;;3.85;99.99
3812;BME280;1921;49.368;11.068;2022-12-07T00:09:01;97593.50;;;3.67;99.66
3812;BME280;1921;49.368;11.068;2022-12-07T00:11:27;97619.44;;;3.85;98.87
3812;BME280;1921;49.368;11.068;2022-12-07T00:13:58;97592.66;;;3.57;99.36
3812;BME280;1921;49.368;11.068;2022-12-07T00:16:29;97613.69;;;3.72;99.57
3812;BME280;1921;49.368;11.068;2022-12-07T00:18:55;97582.91;;;3.61;98.90
3812;BME280;1921;49.368;11.068;2022-12-07T00:21:25;97567.38;;;3.41;99.62
3812;BME280;1921;49.368;11.068;2022-12-07T00:23:54;97567.78;;;3.27;100.00
3812;BME280;1921;49.368;11.068;2022-12-07T00:26:26;97602.69;;;3.60;99.21
3812;BME280;1921;49.368;11.068;2022-12-07T00:28:58;97571.63;;;3.42;99.32
3812;BME280;1921;49.368;11.068;2022-12-07T00:31:28;97601.34;;;3.56;99.30
3812;BME280;1921;49.368;11.068;2022-12-07T00:33:55;97607.31;;;3.57;99.17
3812;BME280;1921;49.368;11.068;2022-12-07T00:36:23;97487.97;;;2.87;99.79
3812;BME280;1921;49.368;11.068;2022-12-07T00:38:49;97601.88;;;3.60;100.00
3812;BME280;1921;49.368;11.068;2022-12-07T00:41:18;97623.09;;;3.73;100.00
3812;BME280;1921;49.368;11.068;2022-12-07T00:43:46;97653.50;;;3.89;100.00
3812;BME280;1921;49.368;11.068;2022-12-07T00:46:13;97560.59;;;3.31;100.00
3812;BME280;1921;49.368;11.068;2022-12-07T00:48:40;97633.69;;;3.80;100.00
3812;BME280;1921;49.368;11.068;2022-12-07T00:51:07;97616.28;;;3.72;100.00
3812;BME280;1921;49.368;11.068;2022-12-07T00:53:37;97570.63;;;3.34;100.00
3812;BME280;1921;49.368;11.068;2022-12-07T00:56:14;97644.53;;;3.83;100.00
3812;BME280;1921;49.368;11.068;2022-12-07T00:58:40;97641.81;;;3.85;100.00
3812;BME280;1921;49.368;11.068;2022-12-07T01:01:08;97579.75;;;3.47;100.00
3812;BME280;1921;49.368;11.068;2022-12-07T01:03:34;97580.69;;;3.46;100.00
3812;BME280;1921;49.368;11.068;2022-12-07T01:06:01;97591.84;;;3.57;100.00
3812;BME280;1921;49.368;11.068;2022-12-07T01:08:28;97635.06;;;3.93;100.00
3812;BME280;1921;49.368;11.068;2022-12-07T01:11:06;97610.75;;;3.67;100.00
3812;BME280;1921;49.368;11.068;2022-12-07T01:13:34;97561.94;;;3.35;100.00
3812;BME280;1921;49.368;11.068;2022-12-07T01:16:04;97587.47;;;3.47;100.00
3812;BME280;1921;49.368;11.068;2022-12-07T01:18:32;97579.06;;;3.45;100.00
3812;BME280;1921;49.368;11.068;2022-12-07T01:21:12;97636.53;;;3.76;100.00
3812;BME280;1921;49.368;11.068;2022-12-07T01:23:38;97607.72;;;3.52;100.00
3812;BME280;1921;49.368;11.068;2022-12-07T01:26:10;97615.47;;;3.62;100.00
3812;BME280;1921;49.368;11.068;2022-12-07T01:28:36;97526.38;;;3.09;100.00
3812;BME280;1921;49.368;11.068;2022-12-07T01:31:07;97633.13;;;3.76;100.00
3812;BME280;1921;49.368;11.068;2022-12-07T01:33:35;97542.81;;;3.28;100.00
3812;BME280;1921;49.368;11.068;2022-12-07T01:36:13;97662.75;;;4.01;100.00
3812;BME280;1921;49.368;11.068;2022-12-07T01:38:39;97597.53;;;3.50;100.00
3812;BME280;1921;49.368;11.068;2022-12-07T01:41:05;97602.16;;;3.57;100.00
3812;BME280;1921;49.368;11.068;2022-12-07T01:43:33;97623.75;;;3.65;100.00
3812;BME280;1921;49.368;11.068;2022-12-07T01:45:59;97619.69;;;3.63;100.00
3812;BME280;1921;49.368;11.068;2022-12-07T01:48:33;97630.84;;;3.73;100.00
3812;BME280;1921;49.368;11.068;2022-12-07T01:51:09;97662.34;;;3.86;100.00
3812;BME280;1921;49.368;11.068;2022-12-07T01:53:41;97661.28;;;3.98;100.00
3812;BME280;1921;49.368;11.068;2022-12-07T01:56:12;97666.53;;;3.97;100.00
3812;BME280;1921;49.368;11.068;2022-12-07T01:58:43;97588.00;;;3.41;100.00
3812;BME280;1921;49.368;11.068;2022-12-07T02:01:09;97572.69;;;3.30;100.00
3812;BME280;1921;49.368;11.068;2022-12-07T02:03:41;97582.84;;;3.41;100.00
3812;BME280;1921;49.368;11.068;2022-12-07T02:06:09;97606.38;;;3.67;100.00
3812;BME280;1921;49.368;11.068;2022-12-07T02:08:36;97506.03;;;3.06;100.00
3812;BME280;1921;49.368;11.068;2022-12-07T02:11:03;97614.25;;;3.75;100.00
3812;BME280;1921;49.368;11.068;2022-12-07T02:13:33;97654.59;;;3.96;100.00
3812;BME280;1921;49.368;11.068;2022-12-07T02:28:24;97582.22;;;3.59;99.94
3812;BME280;1921;49.368;11.068;2022-12-07T02:30:56;97626.63;;;3.82;100.00
3812;BME280;1921;49.368;11.068;2022-12-07T02:33:50;97637.50;;;3.85;100.00
3812;BME280;1921;49.368;11.068;2022-12-07T02:36:28;97593.75;;;3.55;100.00
3812;BME280;1921;49.368;11.068;2022-12-07T02:39:17;97601.88;;;3.60;100.00
3812;BME280;1921;49.368;11.068;2022-12-07T02:41:48;97452.28;;;2.73;99.69
3812;BME280;1921;49.368;11.068;2022-12-07T02:44:20;97636.13;;;3.81;100.00
3812;BME280;1921;49.368;11.068;2022-12-07T02:46:59;97630.16;;;3.81;99.94
3812;BME280;1921;49.368;11.068;2022-12-07T02:49:29;97605.69;;;3.65;99.61
3812;BME280;1921;49.368;11.068;2022-12-07T02:51:55;97602.31;;;3.74;100.00
3812;BME280;1921;49.368;11.068;2022-12-07T02:54:22;97586.69;;;3.57;100.00
3812;BME280;1921;49.368;11.068;2022-12-07T02:59:58;97614.38;;;3.55;100.00
3812;BME280;1921;49.368;11.068;2022-12-07T03:02:35;97628.25;;;3.73;100.00
3812;BME280;1921;49.368;11.068;2022-12-07T03:11:00;97591.00;;;3.46;99.87
3812;BME280;1921;49.368;11.068;2022-12-07T03:18:53;97534.63;;;2.93;98.56
3812;BME280;1921;49.368;11.068;2022-12-07T03:21:26;97583.63;;;3.13;98.18
3812;BME280;1921;49.368;11.068;2022-12-07T03:23:57;97537.38;;;2.71;98.26
3812;BME280;1921;49.368;11.068;2022-12-07T03:26:32;97509.88;;;2.41;98.37
3812;BME280;1921;49.368;11.068;2022-12-07T03:29:37;97606.44;;;2.87;99.15
3812;BME280;1921;49.368;11.068;2022-12-07T03:32:06;97538.91;;;2.53;99.70
3812;BME280;1921;49.368;11.068;2022-12-07T03:37:41;97568.91;;;2.63;100.00
3812;BME280;1921;49.368;11.068;2022-12-07T03:40:30;97589.16;;;2.78;100.00
3812;BME280;1921;49.368;11.068;2022-12-07T03:43:00;97510.53;;;2.33;100.00
3812;BME280;1921;49.368;11.068;2022-12-07T03:45:42;97589.59;;;2.83;100.00
3812;BME280;1921;49.368;11.068;2022-12-07T03:48:39;97555.41;;;2.71;100.00
3812;BME280;1921;49.368;11.068;2022-12-07T03:51:33;97525.81;;;2.56;100.00
3812;BME280;1921;49.368;11.068;2022-12-07T03:54:26;97571.06;;;2.89;100.00
3812;BME280;1921;49.368;11.068;2022-12-07T03:56:54;97573.06;;;2.85;100.00
3812;BME280;1921;49.368;11.068;2022-12-07T03:59:22;97519.66;;;2.47;100.00
3812;BME280;1921;49.368;11.068;2022-12-07T04:01:55;97516.78;;;2.40;100.00
3812;BME280;1921;49.368;11.068;2022-12-07T04:04:22;97573.69;;;2.68;99.40
3812;BME280;1921;49.368;11.068;2022-12-07T04:06:50;97523.34;;;2.24;98.02
3812;BME280;1921;49.368;11.068;2022-12-07T04:09:16;97524.47;;;2.10;97.80
3812;BME280;1921;49.368;11.068;2022-12-07T04:11:42;97532.59;;;2.05;98.26
3812;BME280;1921;49.368;11.068;2022-12-07T04:14:08;97533.97;;;1.88;98.20
3812;BME280;1921;49.368;11.068;2022-12-07T04:16:48;97544.94;;;1.91;99.09
3812;BME280;1921;49.368;11.068;2022-12-07T04:19:15;97492.28;;;1.53;99.01
3812;BME280;1921;49.368;11.068;2022-12-07T04:21:41;97555.69;;;1.84;99.60
3812;BME280;1921;49.368;11.068;2022-12-07T04:24:07;97337.09;;;0.49;100.00
3812;BME280;1921;49.368;11.068;2022-12-07T04:26:33;97516.34;;;1.52;100.00
3812;BME280;1921;49.368;11.068;2022-12-07T04:28:58;97536.50;;;1.68;100.00
3812;BME280;1921;49.368;11.068;2022-12-07T04:31:24;97523.81;;;1.55;100.00
3812;BME280;1921;49.368;11.068;2022-12-07T04:33:50;97524.06;;;1.52;100.00
3812;BME280;1921;49.368;11.068;2022-12-07T04:36:15;97470.13;;;1.20;100.00
3812;BME280;1921;49.368;11.068;2022-12-07T04:38:41;97530.72;;;1.54;100.00
3812;BME280;1921;49.368;11.068;2022-12-07T04:41:08;97505.31;;;1.40;100.00
3812;BME280;1921;49.368;11.068;2022-12-07T04:43:35;97526.50;;;1.53;100.00
3812;BME280;1921;49.368;11.068;2022-12-07T04:46:01;97539.22;;;1.55;100.00
3812;BME280;1921;49.368;11.068;2022-12-07T04:48:28;97530.34;;;1.59;100.00
3812;BME280;1921;49.368;11.068;2022-12-07T04:50:57;97523.59;;;1.58;100.00
3812;BME280;1921;49.368;11.068;2022-12-07T04:53:22;97530.53;;;1.67;100.00
3812;BME280;1921;49.368;11.068;2022-12-07T04:55:48;97551.78;;;1.80;100.00
3812;BME280;1921;49.368;11.068;2022-12-07T04:58:14;97556.78;;;1.82;100.00
3812;BME280;1921;49.368;11.068;2022-12-07T05:00:40;97531.69;;;1.74;100.00
3812;BME280;1921;49.368;11.068;2022-12-07T05:03:06;97543.78;;;1.83;100.00
3812;BME280;1921;49.368;11.068;2022-12-07T05:05:32;97538.03;;;1.91;100.00
3812;BME280;1921;49.368;11.068;2022-12-07T05:07:58;97541.66;;;1.88;100.00
3812;BME280;1921;49.368;11.068;2022-12-07T05:10:23;97562.09;;;2.11;100.00
3812;BME280;1921;49.368;11.068;2022-12-07T05:12:49;97586.91;;;2.33;100.00
3812;BME280;1921;49.368;11.068;2022-12-07T05:15:16;97513.69;;;1.95;100.00
3812;BME280;1921;49.368;11.068;2022-12-07T05:17:41;97543.72;;;2.15;100.00
3812;BME280;1921;49.368;11.068;2022-12-07T05:20:08;97556.41;;;2.28;100.00
3812;BME280;1921;49.368;11.068;2022-12-07T05:22:35;97519.63;;;2.16;100.00
3812;BME280;1921;49.368;11.068;2022-12-07T05:25:01;97564.66;;;2.53;100.00
3812;BME280;1921;49.368;11.068;2022-12-07T05:27:26;97526.75;;;2.24;100.00
3812;BME280;1921;49.368;11.068;2022-12-07T05:29:52;97560.31;;;2.53;100.00
3812;BME280;1921;49.368;11.068;2022-12-07T05:32:18;97555.44;;;2.50;100.00
3812;BME280;1921;49.368;11.068;2022-12-07T05:34:44;97512.44;;;2.31;100.00
3812;BME280;1921;49.368;11.068;2022-12-07T05:37:10;97536.44;;;2.41;100.00
3812;BME280;1921;49.368;11.068;2022-12-07T05:39:35;97522.28;;;2.26;100.00
3812;BME280;1921;49.368;11.068;2022-12-07T05:42:03;97548.69;;;2.49;100.00
3812;BME280;1921;49.368;11.068;2022-12-07T05:44:46;97575.84;;;2.63;100.00
3812;BME280;1921;49.368;11.068;2022-12-07T05:47:13;97522.44;;;2.34;100.00
3812;BME280;1921;49.368;11.068;2022-12-07T05:49:40;97571.72;;;2.60;100.00
3812;BME280;1921;49.368;11.068;2022-12-07T05:52:06;97562.78;;;2.55;100.00
3812;BME280;1921;49.368;11.068;2022-12-07T05:54:33;97509.16;;;2.29;100.00
3812;BME280;1921;49.368;11.068;2022-12-07T05:56:58;97530.91;;;2.46;100.00
3812;BME280;1921;49.368;11.068;2022-12-07T05:59:24;97570.31;;;2.77;100.00
3812;BME280;1921;49.368;11.068;2022-12-07T06:01:55;97540.31;;;2.57;100.00
3812;BME280;1921;49.368;11.068;2022-12-07T06:04:23;97523.47;;;2.53;100.00
3812;BME280;1921;49.368;11.068;2022-12-07T06:06:49;97528.50;;;2.54;100.00
3812;BME280;1921;49.368;11.068;2022-12-07T06:09:16;97526.25;;;2.61;100.00
3812;BME280;1921;49.368;11.068;2022-12-07T06:11:42;97574.31;;;2.91;100.00
3812;BME280;1921;49.368;11.068;2022-12-07T06:14:26;97507.28;;;2.62;100.00
3812;BME280;1921;49.368;11.068;2022-12-07T06:16:51;97555.47;;;2.90;100.00
3812;BME280;1921;49.368;11.068;2022-12-07T06:19:17;97519.97;;;2.54;100.00
3812;BME280;1921;49.368;11.068;2022-12-07T06:21:43;97538.72;;;2.65;100.00
3812;BME280;1921;49.368;11.068;2022-12-07T06:24:13;97504.34;;;2.46;100.00
3812;BME280;1921;49.368;11.068;2022-12-07T06:26:39;97520.41;;;2.59;100.00
3812;BME280;1921;49.368;11.068;2022-12-07T06:29:06;97530.59;;;2.70;100.00
3812;BME280;1921;49.368;11.068;2022-12-07T06:31:32;97546.47;;;2.75;100.00
3812;BME280;1921;49.368;11.068;2022-12-07T06:34:04;97533.59;;;2.75;100.00
3812;BME280;1921;49.368;11.068;2022-12-07T06:36:31;97573.91;;;2.86;100.00
3812;BME280;1921;49.368;11.068;2022-12-07T06:38:57;97528.03;;;2.70;100.00
3812;BME280;1921;49.368;11.068;2022-12-07T06:41:23;97535.19;;;2.66;100.00
3812;BME280;1921;49.368;11.068;2022-12-07T06:43:49;97531.41;;;2.70;99.45
3812;BME280;1921;49.368;11.068;2022-12-07T06:46:16;97585.72;;;2.98;100.00
3812;BME280;1921;49.368;11.068;2022-12-07T06:48:42;97478.03;;;2.32;100.00
3812;BME280;1921;49.368;11.068;2022-12-07T06:51:09;97488.25;;;2.43;99.77
3812;BME280;1921;49.368;11.068;2022-12-07T06:53:35;97551.34;;;2.78;99.83
3812;BME280;1921;49.368;11.068;2022-12-07T06:56:03;97530.59;;;2.70;100.00
3812;BME280;1921;49.368;11.068;2022-12-07T06:58:29;97544.50;;;2.88;100.00
3812;BME280;1921;49.368;11.068;2022-12-07T07:00:55;97555.66;;;2.99;99.78
3812;BME280;1921;49.368;11.068;2022-12-07T07:03:21;97522.41;;;2.86;100.00
3812;BME280;1921;49.368;11.068;2022-12-07T07:05:47;97597.34;;;3.23;99.78
3812;BME280;1921;49.368;11.068;2022-12-07T07:08:13;97537.72;;;2.87;99.47
3812;BME280;1921;49.368;11.068;2022-12-07T07:10:39;97593.13;;;3.22;99.74
3812;BME280;1921;49.368;11.068;2022-12-07T07:13:05;97514.34;;;2.69;99.65
3812;BME280;1921;49.368;11.068;2022-12-07T07:15:31;97523.84;;;2.79;98.54
3812;BME280;1921;49.368;11.068;2022-12-07T07:17:57;97532.84;;;2.94;98.09
3812;BME280;1921;49.368;11.068;2022-12-07T07:20:23;97539.91;;;3.02;98.35
3812;BME280;1921;49.368;11.068;2022-12-07T07:22:49;97543.72;;;3.07;98.64
3812;BME280;1921;49.368;11.068;2022-12-07T07:25:15;97530.41;;;2.92;98.46
3812;BME280;1921;49.368;11.068;2022-12-07T07:27:41;97560.66;;;3.00;97.58
3812;BME280;1921;49.368;11.068;2022-12-07T07:30:08;97535.03;;;2.99;97.85
3812;BME280;1921;49.368;11.068;2022-12-07T07:32:34;97549.72;;;3.17;97.84
3812;BME280;1921;49.368;11.068;2022-12-07T07:35:00;97558.00;;;3.21;96.78
3812;BME280;1921;49.368;11.068;2022-12-07T07:37:26;97598.91;;;3.55;96.87
3812;BME280;1921;49.368;11.068;2022-12-07T07:39:52;97555.03;;;3.26;95.82
3812;BME280;1921;49.368;11.068;2022-12-07T07:42:18;97587.91;;;3.53;95.95
3812;BME280;1921;49.368;11.068;2022-12-07T07:44:43;97565.22;;;3.46;96.00
3812;BME280;1921;49.368;11.068;2022-12-07T07:47:09;97567.28;;;3.53;95.44
3812;BME280;1921;49.368;11.068;2022-12-07T07:49:35;97499.97;;;3.27;95.68
3812;BME280;1921;49.368;11.068;2022-12-07T07:52:01;97576.91;;;3.60;95.21
3812;BME280;1921;49.368;11.068;2022-12-07T07:54:26;97405.38;;;2.59;94.08
3812;BME280;1921;49.368;11.068;2022-12-07T07:56:53;97541.50;;;3.53;93.93
3812;BME280;1921;49.368;11.068;2022-12-07T07:59:18;97582.63;;;3.83;93.45
3812;BME280;1921;49.368;11.068;2022-12-07T08:01:44;97504.84;;;3.39;92.75
3812;BME280;1921;49.368;11.068;2022-12-07T08:04:10;97625.84;;;4.10;92.92
3812;BME280;1921;49.368;11.068;2022-12-07T08:06:36;97538.66;;;3.65;92.40
3812;BME280;1921;49.368;11.068;2022-12-07T08:09:02;97526.03;;;3.53;91.38
3812;BME280;1921;49.368;11.068;2022-12-07T08:11:30;97588.19;;;4.08;92.37
3812;BME280;1921;49.368;11.068;2022-12-07T08:13:56;97614.38;;;4.32;91.21
3812;BME280;1921;49.368;11.068;2022-12-07T08:16:22;97576.78;;;4.20;92.08
3812;BME280;1921;49.368;11.068;2022-12-07T08:18:47;97608.41;;;4.41;91.98
3812;BME280;1921;49.368;11.068;2022-12-07T08:21:14;97563.47;;;4.24;92.74
3812;BME280;1921;49.368;11.068;2022-12-07T08:23:41;97552.59;;;4.30;91.35
3812;BME280;1921;49.368;11.068;2022-12-07T08:26:14;97574.72;;;4.43;91.17
3812;BME280;1921;49.368;11.068;2022-12-07T08:28:40;97617.03;;;4.79;90.64
3812;BME280;1921;49.368;11.068;2022-12-07T08:31:14;97573.59;;;4.55;90.10
3812;BME280;1921;49.368;11.068;2022-12-07T08:33:40;97625.69;;;4.88;88.56
3812;BME280;1921;49.368;11.068;2022-12-07T08:36:10;97591.78;;;4.63;87.67
3812;BME280;1921;49.368;11.068;2022-12-07T08:38:38;97605.88;;;4.78;87.89
3812;BME280;1921;49.368;11.068;2022-12-07T08:41:05;97581.44;;;4.73;88.18
3812;BME280;1921;49.368;11.068;2022-12-07T08:43:32;97597.91;;;4.99;88.25
3812;BME280;1921;49.368;11.068;2022-12-07T08:46:53;97619.16;;;5.21;86.72
3812;BME280;1921;49.368;11.068;2022-12-07T08:49:24;97611.97;;;5.14;86.01
3812;BME280;1921;49.368;11.068;2022-12-07T08:51:51;97586.44;;;4.74;86.33
3812;BME280;1921;49.368;11.068;2022-12-07T08:54:18;97584.22;;;4.89;85.02
3812;BME280;1921;49.368;11.068;2022-12-07T08:56:46;97571.03;;;4.82;86.37
3812;BME280;1921;49.368;11.068;2022-12-07T08:59:14;97591.38;;;4.95;86.10
3812;BME280;1921;49.368;11.068;2022-12-07T09:01:42;97638.06;;;5.21;86.48
3812;BME280;1921;49.368;11.068;2022-12-07T09:04:08;97550.63;;;4.89;86.36
3812;BME280;1921;49.368;11.068;2022-12-07T09:06:34;97536.41;;;4.75;84.75
3812;BME280;1921;49.368;11.068;2022-12-07T09:09:02;97526.41;;;4.90;83.83
3812;BME280;1921;49.368;11.068;2022-12-07T09:11:29;97557.56;;;5.16;83.34
3812;BME280;1921;49.368;11.068;2022-12-07T09:13:55;97539.66;;;5.05;83.54
3812;BME280;1921;49.368;11.068;2022-12-07T09:16:21;97560.22;;;4.97;82.12
3812;BME280;1921;49.368;11.068;2022-12-07T09:18:47;97530.84;;;4.70;83.36
3812;BME280;1921;49.368;11.068;2022-12-07T09:21:14;97503.91;;;3.79;87.93
3812;BME280;1921;49.368;11.068;2022-12-07T09:23:42;97598.56;;;4.64;87.28
3812;BME280;1921;49.368;11.068;2022-12-07T09:26:09;97534.25;;;4.24;88.08
3812;BME280;1921;49.368;11.068;2022-12-07T09:28:35;97495.31;;;4.17;86.67
3812;BME280;1921;49.368;11.068;2022-12-07T09:31:02;97539.31;;;4.53;86.71
3812;BME280;1921;49.368;11.068;2022-12-07T09:33:28;97613.66;;;5.06;85.48
3812;BME280;1921;49.368;11.068;2022-12-07T09:35:54;97495.44;;;4.06;85.12
3812;BME280;1921;49.368;11.068;2022-12-07T09:38:20;97537.00;;;4.59;86.63
3812;BME280;1921;49.368;11.068;2022-12-07T09:40:47;97522.94;;;4.44;87.38
3812;BME280;1921;49.368;11.068;2022-12-07T09:43:22;97575.31;;;4.64;87.73
3812;BME280;1921;49.368;11.068;2022-12-07T09:45:52;97553.19;;;4.62;87.33
3812;BME280;1921;49.368;11.068;2022-12-07T09:48:32;97582.31;;;4.91;86.36
3812;BME280;1921;49.368;11.068;2022-12-07T09:51:00;97568.31;;;4.84;87.85
3812;BME280;1921;49.368;11.068;2022-12-07T09:53:45;97543.25;;;4.67;88.26
3812;BME280;1921;49.368;11.068;2022-12-07T09:56:14;97583.47;;;4.97;87.50
3812;BME280;1921;49.368;11.068;2022-12-07T09:58:41;97586.63;;;4.91;86.72
3812;BME280;1921;49.368;11.068;2022-12-07T10:03:40;97579.41;;;4.67;89.68
3812;BME280;1921;49.368;11.068;2022-12-07T10:06:07;97564.31;;;4.62;90.48
3812;BME280;1921;49.368;11.068;2022-12-07T10:08:36;97540.38;;;4.70;88.83
3812;BME280;1921;49.368;11.068;2022-12-07T10:11:02;97579.41;;;5.04;88.37
3812;BME280;1921;49.368;11.068;2022-12-07T10:13:48;97534.25;;;4.71;89.21
3812;BME280;1921;49.368;11.068;2022-12-07T10:16:41;97553.13;;;4.71;90.83
3812;BME280;1921;49.368;11.068;2022-12-07T10:22:16;97575.72;;;4.97;89.84
3812;BME280;1921;49.368;11.068;2022-12-07T10:24:46;97554.72;;;4.82;88.69
3812;BME280;1921;49.368;11.068;2022-12-07T10:27:26;97556.91;;;4.86;88.24
3812;BME280;1921;49.368;11.068;2022-12-07T10:29:53;97554.22;;;5.06;88.81
3812;BME280;1921;49.368;11.068;2022-12-07T10:34:44;97573.81;;;5.26;87.60
3812;BME280;1921;49.368;11.068;2022-12-07T10:42:27;97521.00;;;5.11;85.50
3812;BME280;1921;49.368;11.068;2022-12-07T10:45:17;97515.47;;;5.24;84.90
3812;BME280;1921;49.368;11.068;2022-12-07T11:05:34;97506.91;;;5.59;84.12
3812;BME280;1921;49.368;11.068;2022-12-07T11:11:34;97565.22;;;5.89;84.55
3812;BME280;1921;49.368;11.068;2022-12-07T11:16:55;97554.53;;;5.84;85.30
3812;BME280;1921;49.368;11.068;2022-12-07T11:25:37;97549.84;;;5.70;86.13
3812;BME280;1921;49.368;11.068;2022-12-07T11:31:36;97547.78;;;5.55;87.79
3812;BME280;1921;49.368;11.068;2022-12-07T11:36:58;97521.31;;;5.26;88.29
3812;BME280;1921;49.368;11.068;2022-12-07T11:39:37;97355.31;;;4.33;87.70
3812;BME280;1921;49.368;11.068;2022-12-07T11:42:19;97469.91;;;5.23;88.33
3812;BME280;1921;49.368;11.068;2022-12-07T11:47:48;97493.47;;;5.73;86.33
3812;BME280;1921;49.368;11.068;2022-12-07T11:50:37;97535.94;;;6.24;85.18
3812;BME280;1921;49.368;11.068;2022-12-07T12:01:55;97457.47;;;5.80;84.12
3812;BME280;1921;49.368;11.068;2022-12-07T12:07:26;97296.16;;;4.93;83.53
3812;BME280;1921;49.368;11.068;2022-12-07T12:10:06;97493.69;;;5.98;84.24
3812;BME280;1921;49.368;11.068;2022-12-07T12:12:54;97516.16;;;6.15;83.80
3812;BME280;1921;49.368;11.068;2022-12-07T12:19:33;97502.72;;;6.45;82.64
3812;BME280;1921;49.368;11.068;2022-12-07T12:22:38;97481.91;;;6.29;82.47
3812;BME280;1921;49.368;11.068;2022-12-07T12:25:18;97496.56;;;6.20;82.66
3812;BME280;1921;49.368;11.068;2022-12-07T12:27:48;97477.41;;;6.05;83.60
3812;BME280;1921;49.368;11.068;2022-12-07T12:33:24;97448.06;;;5.97;84.83
3812;BME280;1921;49.368;11.068;2022-12-07T12:49:35;97415.91;;;5.81;82.59
3812;BME280;1921;49.368;11.068;2022-12-07T12:57:34;97470.88;;;6.01;83.81
3812;BME280;1921;49.368;11.068;2022-12-07T13:00:17;97429.78;;;5.54;84.95
3812;BME280;1921;49.368;11.068;2022-12-07T13:02:55;97480.22;;;5.94;83.94
3812;BME280;1921;49.368;11.068;2022-12-07T13:05:31;97432.25;;;5.82;84.35
3812;BME280;1921;49.368;11.068;2022-12-07T13:08:22;97488.59;;;6.14;84.61
3812;BME280;1921;49.368;11.068;2022-12-07T13:10:50;97425.41;;;5.73;83.38
3812;BME280;1921;49.368;11.068;2022-12-07T13:15:51;97474.41;;;5.92;85.15
3812;BME280;1921;49.368;11.068;2022-12-07T13:29:19;97421.81;;;5.30;86.45
3812;BME280;1921;49.368;11.068;2022-12-07T13:31:56;97408.69;;;5.23;86.76
3812;BME280;1921;49.368;11.068;2022-12-07T13:34:39;97468.94;;;5.59;85.82
3812;BME280;1921;49.368;11.068;2022-12-07T13:39:56;97420.88;;;5.31;85.98
3812;BME280;1921;49.368;11.068;2022-12-07T13:42:28;97481.41;;;5.82;85.72
3812;BME280;1921;49.368;11.068;2022-12-07T13:44:55;97469.03;;;5.32;87.19
3812;BME280;1921;49.368;11.068;2022-12-07T13:47:43;97440.78;;;5.21;86.35
3812;BME280;1921;49.368;11.068;2022-12-07T13:50:29;97456.19;;;5.22;88.23
3812;BME280;1921;49.368;11.068;2022-12-07T13:53:00;97443.53;;;5.01;89.18
3812;BME280;1921;49.368;11.068;2022-12-07T13:55:28;97469.31;;;5.29;87.43
3812;BME280;1921;49.368;11.068;2022-12-07T13:57:55;97433.72;;;5.23;86.94
3812;BME280;1921;49.368;11.068;2022-12-07T14:00:27;97464.59;;;5.42;87.83
3812;BME280;1921;49.368;11.068;2022-12-07T14:03:23;97482.59;;;5.34;88.12
3812;BME280;1921;49.368;11.068;2022-12-07T14:08:36;97469.59;;;5.26;87.92
3812;BME280;1921;49.368;11.068;2022-12-07T14:11:02;97392.88;;;4.45;87.28
3812;BME280;1921;49.368;11.068;2022-12-07T14:14:00;97500.22;;;5.48;88.46
3812;BME280;1921;49.368;11.068;2022-12-07T14:16:36;97482.97;;;5.39;88.03
3812;BME280;1921;49.368;11.068;2022-12-07T14:19:06;97503.66;;;5.39;88.54
3812;BME280;1921;49.368;11.068;2022-12-07T14:22:18;97486.09;;;5.43;88.94
3812;BME280;1921;49.368;11.068;2022-12-07T14:24:44;97451.81;;;5.23;89.27
3812;BME280;1921;49.368;11.068;2022-12-07T14:27:22;97415.69;;;4.95;88.94
3812;BME280;1921;49.368;11.068;2022-12-07T14:29:51;97427.13;;;4.93;88.96
3812;BME280;1921;49.368;11.068;2022-12-07T14:32:29;97403.66;;;4.86;87.90
3812;BME280;1921;49.368;11.068;2022-12-07T14:35:11;97396.38;;;4.54;89.62
3812;BME280;1921;49.368;11.068;2022-12-07T14:37:39;97363.94;;;4.24;90.18
3812;BME280;1921;49.368;11.068;2022-12-07T14:40:06;97460.28;;;4.97;90.82
3812;BME280;1921;49.368;11.068;2022-12-07T14:42:33;97452.47;;;5.07;89.09
3812;BME280;1921;49.368;11.068;2022-12-07T14:44:59;97455.38;;;5.22;88.18
3812;BME280;1921;49.368;11.068;2022-12-07T14:47:27;97433.28;;;5.09;88.72
3812;BME280;1921;49.368;11.068;2022-12-07T14:49:53;97421.97;;;5.10;88.68
3812;BME280;1921;49.368;11.068;2022-12-07T14:52:37;97420.56;;;4.98;88.37
3812;BME280;1921;49.368;11.068;2022-12-07T14:55:04;97417.47;;;4.95;88.08
3812;BME280;1921;49.368;11.068;2022-12-07T14:57:30;97413.84;;;4.88;88.21
3812;BME280;1921;49.368;11.068;2022-12-07T14:59:56;97446.03;;;4.93;88.35
3812;BME280;1921;49.368;11.068;2022-12-07T15:02:21;97442.72;;;5.01;88.85
3812;BME280;1921;49.368;11.068;2022-12-07T15:04:47;97444.41;;;4.92;89.02
3812;BME280;1921;49.368;11.068;2022-12-07T15:07:19;97406.22;;;4.68;89.38
3812;BME280;1921;49.368;11.068;2022-12-07T15:09:47;97450.88;;;4.96;89.37
3812;BME280;1921;49.368;11.068;2022-12-07T15:12:13;97438.91;;;4.77;89.69
3812;BME280;1921;49.368;11.068;2022-12-07T15:14:39;97457.91;;;4.86;89.13
3812;BME280;1921;49.368;11.068;2022-12-07T15:17:04;97454.75;;;4.92;89.41
3812;BME280;1921;49.368;11.068;2022-12-07T15:19:30;97417.34;;;4.69;89.50
3812;BME280;1921;49.368;11.068;2022-12-07T15:21:57;97427.25;;;4.73;89.18
3812;BME280;1921;49.368;11.068;2022-12-07T15:24:23;97439.00;;;4.85;88.85
3812;BME280;1921;49.368;11.068;2022-12-07T15:26:49;97408.38;;;4.73;89.57
3812;BME280;1921;49.368;11.068;2022-12-07T15:29:15;97466.78;;;5.01;90.30
3812;BME280;1921;49.368;11.068;2022-12-07T15:31:42;97414.78;;;4.69;89.92
3812;BME280;1921;49.368;11.068;2022-12-07T15:34:08;97403.66;;;4.58;90.07
3812;BME280;1921;49.368;11.068;2022-12-07T15:36:34;97423.75;;;4.65;90.43
3812;BME280;1921;49.368;11.068;2022-12-07T15:39:00;97353.59;;;4.24;90.00
3812;BME280;1921;49.368;11.068;2022-12-07T15:41:26;97407.53;;;4.54;90.71
3812;BME280;1921;49.368;11.068;2022-12-07T15:43:52;97449.78;;;4.81;90.67
3812;BME280;1921;49.368;11.068;2022-12-07T15:46:39;97416.38;;;4.70;90.16
3812;BME280;1921;49.368;11.068;2022-12-07T15:49:24;97407.84;;;4.69;90.43
3812;BME280;1921;49.368;11.068;2022-12-07T15:51:50;97368.31;;;4.41;89.57
3812;BME280;1921;49.368;11.068;2022-12-07T15:54:21;97431.53;;;4.82;89.61
3812;BME280;1921;49.368;11.068;2022-12-07T15:56:47;97359.16;;;4.29;90.01